Airport Name : Presidente Joao Suassuna

Other Name : Campina Grande

ICAO : SBKG

IATA : CPV

FAA :

Latitude : -7.269917

Longitude : -35.896364

Country : Brazil

Local Date and Time : 4/21/2018 6:45:00 AM

 

TAF (Terminal Aerodrome Forecast)

 

METAR (METeorological Aerodrome Report)

SBKG 210900Z 00000KT 9999 SCT015 20/19 Q1015

SBKG 210700Z 26002KT CAVOK 19/19 Q1014

SBKG 210600Z 25002KT CAVOK 20/20 Q1014